Terminal Aerodrome Forecast
Issued by NWS

Home | Current Version | Previous Version | Text Only | Print | Product List | Glossary On
Versions: 1 2 3 4 5 6 7 8 9 10 11 12 13 14 15 16 17 18
000
FTUS43 KAPX 011128
TAFAPN
TAF
KAPN 011128Z 0112/0212 22008KT P6SM SCT120
     FM011500 29011KT P6SM VCSH SCT050 BKN100
     FM011800 28013KT P6SM VCSH BKN060
     FM012300 27012KT P6SM SCT070
     FM020200 21004KT P6SM SKC=

USA.gov is the U.S. government's official web portal to all federal, state and local government web resources and services.